Terminal Aerodrome Forecast
Issued by NWS Sterling, VA

Current Version | Previous Version | Graphics & Text | Print | Product List | Glossary On
Versions: 1 2 3 4 5 6 7 8 9 10 11 12 13 14 15 16 17 18 19 20 21 22 23 24 25
000
FTUS41 KLWX 191100
TAFIAD
TAF
KIAD 191138Z 1912/2018 04005KT P6SM SCT015 BKN050
     FM191400 07005KT P6SM BKN050
     FM192000 12006KT P6SM SCT050
     FM200100 VRB03KT P6SM FEW050 SCT130
     FM201600 14006KT P6SM BKN050=

USA.gov is the U.S. government's official web portal to all federal, state and local government web resources and services.